Time;durP1;ratioP1;P1;durP2;ratioP2;P2;SDS_P1;SDS_P2;PMS_P1;PMS_P2;Temp;Humidity;BMP_temperature;BMP_pressure;BME280_temperature;BME280_humidity;BME280_pressure;Samples;Min_cycle;Max_cycle;Signal;HPM_P1;HPM_P2
2022/06/18 00:00:39;;;;;;;;;;;19.30;99.90;;;;;;5025965;28;20389;-71
2022/06/18 00:03:04;;;;;;;;;;;19.30;99.90;;;;;;5025951;28;19918;-71
2022/06/18 00:05:30;;;;;;;;;;;19.30;99.90;;;;;;5022686;28;19925;-71
2022/06/18 00:07:56;;;;;;;;;;;19.20;99.90;;;;;;5004001;28;19918;-71
2022/06/18 00:10:24;;;;;;;;;;;19.10;99.90;;;;;;5009365;28;20282;-70
2022/06/18 00:15:36;;;;;;;;;;;19.20;99.90;;;;;;4992688;28;19957;-72
2022/06/18 00:18:02;;;;;;;;;;;19.10;99.90;;;;;;5014818;28;19928;-71
2022/06/18 00:20:32;;;;;;;;;;;19.10;99.90;;;;;;5028988;28;19917;-71
2022/06/18 00:22:59;;;;;;;;;;;19.10;99.90;;;;;;5026575;28;20255;-71
2022/06/18 00:25:29;;;;;;;;;;;19.10;99.90;;;;;;5011808;28;20369;-71
2022/06/18 00:27:55;;;;;;;;;;;19.10;99.90;;;;;;5025029;28;20017;-71
2022/06/18 00:30:22;;;;;;;;;;;19.10;99.90;;;;;;5049253;28;20004;-71
2022/06/18 00:32:48;;;;;;;;;;;19.00;99.90;;;;;;5032346;28;19917;-70
2022/06/18 00:35:14;;;;;;;;;;;19.00;99.90;;;;;;5015079;28;19940;-70
2022/06/18 00:37:40;;;;;;;;;;;19.00;99.90;;;;;;5032145;28;19929;-70
2022/06/18 00:40:14;;;;;;;;;;;19.00;99.90;;;;;;5048581;28;19926;-70
2022/06/18 00:42:39;;;;;;;;;;;19.00;99.90;;;;;;5048841;28;19917;-70
2022/06/18 00:45:05;;;;;;;;;;;19.00;99.90;;;;;;5003901;28;19925;-70
2022/06/18 00:47:39;;;;;;;;;;;19.00;99.90;;;;;;5029106;28;20000;-70
2022/06/18 00:50:11;;;;;;;;;;;18.90;99.90;;;;;;5012528;28;20060;-71
2022/06/18 00:52:41;;;;;;;;;;;18.90;99.90;;;;;;4995937;28;19921;-71
2022/06/18 00:55:13;;;;;;;;;;;18.90;99.90;;;;;;4996960;28;20003;-70
2022/06/18 00:57:54;;;;;;;;;;;18.90;99.90;;;;;;5012118;28;19924;-71
2022/06/18 01:00:22;;;;;;;;;;;18.90;99.90;;;;;;5017381;28;19925;-70
2022/06/18 01:02:49;;;;;;;;;;;18.90;99.90;;;;;;5031765;28;19924;-70
2022/06/18 01:05:23;;;;;;;;;;;18.90;99.90;;;;;;5019096;28;19985;-70
2022/06/18 01:08:00;;;;;;;;;;;18.90;99.90;;;;;;5024312;28;20390;-70
2022/06/18 01:10:30;;;;;;;;;;;18.90;99.90;;;;;;5015362;28;19917;-70
2022/06/18 01:12:57;;;;;;;;;;;18.80;99.90;;;;;;5031669;28;19921;-71
2022/06/18 01:15:23;;;;;;;;;;;18.90;99.90;;;;;;5017929;28;19925;-71
2022/06/18 01:17:51;;;;;;;;;;;18.90;99.90;;;;;;5023495;28;19922;-70
2022/06/18 01:20:17;;;;;;;;;;;18.80;99.90;;;;;;5013149;28;19921;-70
2022/06/18 01:22:52;;;;;;;;;;;18.80;99.90;;;;;;5031667;28;19925;-70
2022/06/18 01:25:18;;;;;;;;;;;18.80;99.90;;;;;;5047265;28;19925;-70
2022/06/18 01:27:44;;;;;;;;;;;18.80;99.90;;;;;;5014671;28;19917;-71
2022/06/18 01:30:14;;;;;;;;;;;18.70;99.90;;;;;;5012822;28;20376;-70
2022/06/18 01:32:41;;;;;;;;;;;18.60;99.90;;;;;;5031236;28;19925;-70
2022/06/18 01:35:06;;;;;;;;;;;18.60;99.90;;;;;;5034046;28;19953;-71
2022/06/18 01:37:32;;;;;;;;;;;18.60;99.90;;;;;;5010450;28;19975;-70
2022/06/18 01:39:58;;;;;;;;;;;18.50;99.90;;;;;;5045489;28;20274;-71
2022/06/18 01:42:24;;;;;;;;;;;18.60;99.90;;;;;;5030504;28;20007;-70
2022/06/18 01:44:54;;;;;;;;;;;18.50;99.90;;;;;;5019211;28;19956;-70
2022/06/18 01:47:32;;;;;;;;;;;18.50;99.90;;;;;;5027653;28;19925;-71
2022/06/18 01:50:03;;;;;;;;;;;18.50;99.90;;;;;;5020982;28;19964;-71
2022/06/18 01:52:31;;;;;;;;;;;18.50;99.90;;;;;;5047463;28;19968;-70
2022/06/18 01:54:59;;;;;;;;;;;18.60;99.90;;;;;;5030069;28;19996;-70
2022/06/18 01:57:31;;;;;;;;;;;18.50;99.90;;;;;;5030646;28;20440;-70
2022/06/18 02:00:00;;;;;;;;;;;18.60;99.90;;;;;;5028972;28;19983;-70
2022/06/18 02:02:26;;;;;;;;;;;18.60;99.90;;;;;;5030633;28;20381;-70
2022/06/18 02:04:51;;;;;;;;;;;18.60;99.90;;;;;;5029628;28;19957;-70
2022/06/18 02:07:17;;;;;;;;;;;18.50;99.90;;;;;;5014062;28;19925;-71
2022/06/18 02:09:52;;;;;;;;;;;18.40;99.90;;;;;;5046534;28;19964;-71
2022/06/18 02:12:20;;;;;;;;;;;18.30;99.90;;;;;;5045088;28;19928;-70
2022/06/18 02:14:48;;;;;;;;;;;18.30;99.90;;;;;;5019523;28;19940;-70
2022/06/18 02:17:17;;;;;;;;;;;18.30;99.90;;;;;;4989920;28;20369;-71
2022/06/18 02:19:44;;;;;;;;;;;18.20;99.90;;;;;;5034849;28;20337;-70
2022/06/18 02:22:10;;;;;;;;;;;18.20;99.90;;;;;;5006508;28;19964;-70
2022/06/18 02:24:36;;;;;;;;;;;18.30;99.90;;;;;;5010493;28;20123;-71
2022/06/18 02:27:03;;;;;;;;;;;18.20;99.90;;;;;;5014323;28;19918;-70
2022/06/18 02:29:29;;;;;;;;;;;18.20;99.90;;;;;;5046065;28;19959;-71
2022/06/18 02:31:55;;;;;;;;;;;18.10;99.90;;;;;;5012455;28;19921;-71
2022/06/18 02:34:26;;;;;;;;;;;18.00;99.90;;;;;;4986676;28;19921;-71
2022/06/18 02:36:51;;;;;;;;;;;18.00;99.90;;;;;;5026776;28;19944;-71
2022/06/18 02:39:27;;;;;;;;;;;18.00;99.90;;;;;;5035136;28;19963;-71
2022/06/18 02:42:06;;;;;;;;;;;17.90;99.90;;;;;;5045725;28;19924;-70
2022/06/18 02:44:32;;;;;;;;;;;17.80;99.90;;;;;;5020809;28;19918;-70
2022/06/18 02:47:05;;;;;;;;;;;17.80;99.90;;;;;;5009393;28;20047;-71
2022/06/18 02:49:31;;;;;;;;;;;17.80;99.90;;;;;;5011910;28;19924;-70
2022/06/18 02:51:57;;;;;;;;;;;17.80;99.90;;;;;;5011930;28;20008;-70
2022/06/18 02:54:22;;;;;;;;;;;17.70;99.90;;;;;;4998463;28;20072;-71
2022/06/18 02:56:48;;;;;;;;;;;17.70;99.90;;;;;;5026337;28;19922;-71
2022/06/18 02:59:14;;;;;;;;;;;17.70;99.90;;;;;;5017217;28;19925;-70
2022/06/18 03:01:39;;;;;;;;;;;17.70;99.90;;;;;;5001094;28;19999;-71
2022/06/18 03:04:05;;;;;;;;;;;17.70;99.90;;;;;;5004814;28;20297;-70
2022/06/18 03:06:33;;;;;;;;;;;17.60;99.90;;;;;;5026401;28;19921;-70
2022/06/18 03:08:58;;;;;;;;;;;17.60;99.90;;;;;;5013347;28;19917;-70
2022/06/18 03:14:10;;;;;;;;;;;17.60;99.90;;;;;;5033544;28;19957;-70
2022/06/18 03:16:36;;;;;;;;;;;17.60;99.90;;;;;;5012582;28;19917;-71
2022/06/18 03:19:03;;;;;;;;;;;17.60;99.90;;;;;;5011867;28;19921;-70
2022/06/18 03:21:37;;;;;;;;;;;17.60;99.90;;;;;;5027283;28;20427;-70
2022/06/18 03:24:03;;;;;;;;;;;17.70;99.90;;;;;;5011866;28;19917;-70
2022/06/18 03:26:29;;;;;;;;;;;17.70;99.90;;;;;;5030122;28;20271;-71
2022/06/18 03:28:54;;;;;;;;;;;17.70;99.90;;;;;;5045080;28;19917;-70
2022/06/18 03:31:20;;;;;;;;;;;17.80;99.90;;;;;;5012485;28;19921;-70
2022/06/18 03:33:47;;;;;;;;;;;17.80;99.90;;;;;;4995706;28;20909;-70
2022/06/18 03:36:14;;;;;;;;;;;17.80;99.90;;;;;;5045772;28;20377;-70
2022/06/18 03:38:40;;;;;;;;;;;17.80;99.90;;;;;;5011763;28;19976;-70
2022/06/18 03:41:08;;;;;;;;;;;17.80;99.90;;;;;;5012389;28;19964;-71
2022/06/18 03:43:34;;;;;;;;;;;17.80;99.90;;;;;;5012417;28;20381;-71
2022/06/18 03:46:07;;;;;;;;;;;17.70;99.90;;;;;;5011529;28;19933;-70
2022/06/18 03:48:42;;;;;;;;;;;17.70;99.90;;;;;;5011492;28;19925;-71
2022/06/18 03:51:08;;;;;;;;;;;17.60;99.90;;;;;;5012496;28;19924;-71
2022/06/18 03:53:33;;;;;;;;;;;17.70;99.90;;;;;;5026664;28;20358;-71
2022/06/18 03:55:59;;;;;;;;;;;17.60;99.90;;;;;;5028385;28;20016;-71
2022/06/18 03:58:27;;;;;;;;;;;17.60;99.90;;;;;;5028049;28;19988;-70
2022/06/18 04:00:52;;;;;;;;;;;17.60;99.90;;;;;;5012418;28;19917;-70
2022/06/18 04:03:18;;;;;;;;;;;17.70;99.90;;;;;;5045446;28;19995;-71
2022/06/18 04:05:43;;;;;;;;;;;17.60;99.90;;;;;;5044394;28;20023;-71
2022/06/18 04:08:11;;;;;;;;;;;17.60;99.90;;;;;;5013877;28;19917;-71
2022/06/18 04:10:37;;;;;;;;;;;17.70;99.90;;;;;;5013770;28;19922;-71
2022/06/18 04:13:02;;;;;;;;;;;17.70;99.90;;;;;;5031801;28;20433;-71
2022/06/18 04:15:28;;;;;;;;;;;17.80;99.90;;;;;;5013885;28;19924;-71
2022/06/18 04:17:53;;;;;;;;;;;17.70;99.90;;;;;;5047239;28;19925;-71
2022/06/18 04:20:28;;;;;;;;;;;17.80;99.90;;;;;;5032259;28;20015;-71
2022/06/18 04:22:54;;;;;;;;;;;17.80;99.90;;;;;;4998549;28;20024;-71
2022/06/18 04:25:20;;;;;;;;;;;17.80;99.90;;;;;;5015161;28;20385;-71
2022/06/18 04:27:45;;;;;;;;;;;17.80;99.90;;;;;;5048196;28;20378;-71
2022/06/18 04:30:11;;;;;;;;;;;17.80;99.90;;;;;;5048596;28;19924;-71
2022/06/18 04:32:37;;;;;;;;;;;17.80;99.90;;;;;;5031292;28;19921;-71
2022/06/18 04:35:03;;;;;;;;;;;17.80;99.90;;;;;;5007650;28;19918;-71
2022/06/18 04:37:29;;;;;;;;;;;17.80;99.90;;;;;;5018830;28;20385;-71
2022/06/18 04:39:54;;;;;;;;;;;17.80;99.90;;;;;;5014350;28;19928;-71
2022/06/18 04:42:20;;;;;;;;;;;17.80;99.90;;;;;;5015195;28;19968;-71
2022/06/18 04:44:45;;;;;;;;;;;17.90;99.90;;;;;;5030458;28;19963;-71
2022/06/18 04:47:11;;;;;;;;;;;17.90;99.90;;;;;;5045589;28;19917;-71
2022/06/18 04:49:36;;;;;;;;;;;18.00;99.90;;;;;;5033676;28;19928;-71
2022/06/18 04:52:02;;;;;;;;;;;18.00;99.90;;;;;;5031023;28;19924;-71
2022/06/18 04:54:28;;;;;;;;;;;18.10;99.90;;;;;;5029417;28;19964;-71
2022/06/18 04:56:53;;;;;;;;;;;18.10;99.90;;;;;;5013516;28;20415;-71
2022/06/18 04:59:19;;;;;;;;;;;18.10;99.90;;;;;;5047684;28;19917;-71
2022/06/18 05:01:45;;;;;;;;;;;18.20;99.90;;;;;;5015265;28;19952;-71
2022/06/18 05:04:10;;;;;;;;;;;18.30;99.90;;;;;;5030289;28;19956;-71
2022/06/18 05:06:36;;;;;;;;;;;18.30;99.90;;;;;;5034225;28;19922;-71
2022/06/18 05:09:01;;;;;;;;;;;18.30;99.90;;;;;;5020615;28;19957;-71
2022/06/18 05:11:27;;;;;;;;;;;18.30;99.90;;;;;;5012146;28;20381;-71
2022/06/18 05:13:52;;;;;;;;;;;18.40;99.90;;;;;;5022340;28;19957;-71
2022/06/18 05:16:18;;;;;;;;;;;18.40;99.90;;;;;;4997615;28;19917;-71
2022/06/18 05:18:45;;;;;;;;;;;18.50;99.90;;;;;;5025616;28;19921;-71
2022/06/18 05:21:10;;;;;;;;;;;18.50;99.90;;;;;;5022336;28;19962;-71
2022/06/18 05:23:36;;;;;;;;;;;18.50;99.90;;;;;;5028190;28;19984;-71
2022/06/18 05:26:02;;;;;;;;;;;18.60;99.90;;;;;;5020772;28;19924;-71
2022/06/18 05:28:28;;;;;;;;;;;18.60;99.90;;;;;;5044695;28;20732;-71
2022/06/18 05:30:54;;;;;;;;;;;18.60;99.90;;;;;;5020345;28;19917;-71
2022/06/18 05:33:19;;;;;;;;;;;18.60;99.90;;;;;;5043310;28;19917;-71
2022/06/18 05:35:45;;;;;;;;;;;18.70;99.90;;;;;;4994961;28;19922;-71
2022/06/18 05:38:15;;;;;;;;;;;18.70;99.90;;;;;;5027242;28;20000;-71
2022/06/18 05:40:41;;;;;;;;;;;18.80;99.90;;;;;;5011991;28;20326;-71
2022/06/18 05:43:06;;;;;;;;;;;18.80;99.90;;;;;;5029466;28;19921;-71
2022/06/18 05:45:32;;;;;;;;;;;18.90;99.90;;;;;;5013512;28;19972;-71
2022/06/18 05:47:57;;;;;;;;;;;19.00;99.90;;;;;;5025338;28;19976;-71
2022/06/18 05:50:23;;;;;;;;;;;19.10;99.90;;;;;;5046267;28;20369;-71
2022/06/18 05:52:49;;;;;;;;;;;19.10;99.90;;;;;;5029548;28;20005;-71
2022/06/18 05:55:14;;;;;;;;;;;19.20;99.90;;;;;;4991766;28;19925;-71
2022/06/18 05:57:44;;;;;;;;;;;19.20;99.90;;;;;;5026785;28;19921;-77
2022/06/18 06:00:13;;;;;;;;;;;19.30;99.90;;;;;;5044534;28;19967;-77
2022/06/18 06:02:39;;;;;;;;;;;19.40;99.90;;;;;;5046551;28;19918;-71
2022/06/18 06:05:05;;;;;;;;;;;19.40;99.90;;;;;;5032031;28;20008;-71
2022/06/18 06:07:30;;;;;;;;;;;19.50;99.90;;;;;;4996329;28;19924;-71
2022/06/18 06:12:40;;;;;;;;;;;19.60;99.90;;;;;;5013167;28;19917;-71
2022/06/18 06:15:06;;;;;;;;;;;19.60;99.90;;;;;;5029236;28;19921;-71
2022/06/18 06:17:32;;;;;;;;;;;19.70;99.90;;;;;;5004770;28;19921;-71
2022/06/18 06:20:03;;;;;;;;;;;19.80;99.90;;;;;;5029588;28;20405;-71
2022/06/18 06:22:28;;;;;;;;;;;19.80;99.90;;;;;;5045998;28;19918;-72
2022/06/18 06:24:54;;;;;;;;;;;19.90;99.90;;;;;;5044499;28;20400;-72
2022/06/18 06:27:19;;;;;;;;;;;19.90;99.90;;;;;;5026971;28;19917;-72
2022/06/18 06:29:45;;;;;;;;;;;20.00;99.90;;;;;;5012039;28;19921;-72
2022/06/18 06:32:10;;;;;;;;;;;20.10;99.90;;;;;;5028662;28;20012;-71
2022/06/18 06:34:35;;;;;;;;;;;20.20;99.90;;;;;;5027073;28;19968;-71
2022/06/18 06:37:01;;;;;;;;;;;20.30;99.90;;;;;;5011945;28;19948;-71
2022/06/18 06:39:27;;;;;;;;;;;20.30;99.90;;;;;;5035100;28;19973;-71
2022/06/18 06:41:52;;;;;;;;;;;20.40;99.90;;;;;;5028927;28;20133;-71
2022/06/18 06:44:17;;;;;;;;;;;20.40;99.90;;;;;;5012779;28;20338;-71
2022/06/18 06:46:43;;;;;;;;;;;20.50;99.90;;;;;;5027420;28;19925;-71
2022/06/18 06:49:08;;;;;;;;;;;20.60;99.90;;;;;;5044203;28;20278;-71
2022/06/18 06:51:37;;;;;;;;;;;20.60;99.90;;;;;;5030047;28;19922;-71
2022/06/18 06:54:03;;;;;;;;;;;20.70;99.90;;;;;;5028043;28;20059;-71
2022/06/18 06:59:13;;;;;;;;;;;20.80;99.90;;;;;;5000438;28;19926;-71
2022/06/18 07:01:38;;;;;;;;;;;20.80;99.90;;;;;;5009815;28;19917;-71
2022/06/18 07:04:05;;;;;;;;;;;20.90;99.90;;;;;;5011952;28;20028;-71
2022/06/18 07:06:31;;;;;;;;;;;21.00;99.90;;;;;;5013154;28;19942;-71
2022/06/18 07:08:56;;;;;;;;;;;21.00;99.90;;;;;;5021963;28;19922;-71
2022/06/18 07:11:22;;;;;;;;;;;21.00;99.90;;;;;;5011135;28;20369;-71
2022/06/18 07:13:47;;;;;;;;;;;21.20;99.90;;;;;;5009894;28;20056;-71
2022/06/18 07:16:15;;;;;;;;;;;21.20;99.90;;;;;;5009667;28;20396;-72
2022/06/18 07:18:40;;;;;;;;;;;21.20;99.90;;;;;;5026903;28;20414;-72
2022/06/18 07:21:06;;;;;;;;;;;21.40;99.90;;;;;;5011151;28;20068;-72
2022/06/18 07:23:32;;;;;;;;;;;21.40;99.90;;;;;;5009393;28;20370;-71
2022/06/18 07:25:58;;;;;;;;;;;21.50;99.90;;;;;;5009540;28;19924;-72
2022/06/18 07:28:24;;;;;;;;;;;21.50;99.90;;;;;;5018924;28;19917;-71
2022/06/18 07:30:50;;;;;;;;;;;21.60;99.90;;;;;;5014422;28;19924;-71
2022/06/18 07:33:21;;;;;;;;;;;21.60;99.90;;;;;;5025656;28;19917;-71
2022/06/18 07:35:47;;;;;;;;;;;21.70;99.90;;;;;;5009671;28;20274;-71
2022/06/18 07:38:12;;;;;;;;;;;21.80;99.90;;;;;;4992792;28;19945;-71
2022/06/18 07:40:41;;;;;;;;;;;21.80;99.90;;;;;;5010412;28;20594;-71
2022/06/18 07:43:08;;;;;;;;;;;21.90;99.90;;;;;;5045561;28;19921;-71
2022/06/18 07:45:35;;;;;;;;;;;21.90;99.90;;;;;;5012880;28;20388;-71
2022/06/18 07:48:00;;;;;;;;;;;22.00;99.90;;;;;;5029058;28;19991;-71
2022/06/18 07:50:26;;;;;;;;;;;22.00;99.90;;;;;;5044367;28;19960;-71
2022/06/18 07:52:51;;;;;;;;;;;22.00;99.90;;;;;;4994849;28;19972;-71
2022/06/18 07:55:21;;;;;;;;;;;22.10;99.90;;;;;;5005157;28;20345;-71
2022/06/18 07:57:47;;;;;;;;;;;22.20;99.90;;;;;;5044358;28;20445;-71
2022/06/18 08:00:16;;;;;;;;;;;22.30;99.90;;;;;;5030247;28;20009;-71
2022/06/18 08:02:42;;;;;;;;;;;22.40;99.90;;;;;;5042367;28;20281;-71
2022/06/18 08:05:08;;;;;;;;;;;22.40;99.90;;;;;;5027652;28;19924;-71
2022/06/18 08:07:34;;;;;;;;;;;22.40;99.90;;;;;;5012454;28;19917;-71
2022/06/18 08:09:59;;;;;;;;;;;22.40;99.90;;;;;;5006165;28;19963;-71
2022/06/18 08:12:25;;;;;;;;;;;22.40;99.90;;;;;;5009140;28;19979;-71
2022/06/18 08:14:50;;;;;;;;;;;22.50;99.90;;;;;;5019319;28;19917;-71
2022/06/18 08:17:16;;;;;;;;;;;22.60;99.90;;;;;;5045295;28;19925;-71
2022/06/18 08:19:41;;;;;;;;;;;22.60;99.90;;;;;;5042991;28;19921;-71
2022/06/18 08:22:07;;;;;;;;;;;22.70;99.90;;;;;;5045051;28;20285;-71
2022/06/18 08:24:33;;;;;;;;;;;22.70;99.90;;;;;;5009136;28;20373;-71
2022/06/18 08:26:59;;;;;;;;;;;22.70;99.90;;;;;;5012287;28;19968;-72
2022/06/18 08:29:25;;;;;;;;;;;22.70;99.90;;;;;;5009487;28;19917;-71
2022/06/18 08:31:50;;;;;;;;;;;22.80;99.90;;;;;;4992590;28;19924;-71
2022/06/18 08:34:16;;;;;;;;;;;22.90;99.90;;;;;;5025342;28;19922;-71
2022/06/18 08:36:42;;;;;;;;;;;23.00;99.90;;;;;;5024152;28;19944;-71
2022/06/18 08:39:08;;;;;;;;;;;23.10;99.90;;;;;;5043844;28;19924;-71
2022/06/18 08:41:45;;;;;;;;;;;23.00;99.90;;;;;;5045157;28;20004;-71
2022/06/18 08:44:10;;;;;;;;;;;23.00;99.90;;;;;;5010948;28;19971;-71
2022/06/18 08:46:55;;;;;;;;;;;23.00;99.90;;;;;;5009056;28;19921;-71
2022/06/18 08:49:42;;;;;;;;;;;23.10;99.90;;;;;;5034151;28;20005;-71
2022/06/18 08:52:17;;;;;;;;;;;23.20;99.90;;;;;;5012577;28;19968;-71
2022/06/18 08:55:03;;;;;;;;;;;23.20;99.90;;;;;;5035773;28;19917;-72
2022/06/18 08:57:32;;;;;;;;;;;23.30;99.90;;;;;;5035006;28;19921;-71
2022/06/18 09:00:04;;;;;;;;;;;23.30;99.90;;;;;;5012124;28;19917;-71
2022/06/18 09:02:37;;;;;;;;;;;23.40;99.90;;;;;;5013629;28;20373;-71
2022/06/18 09:05:10;;;;;;;;;;;23.30;99.90;;;;;;5040585;28;19918;-71
2022/06/18 09:07:42;;;;;;;;;;;23.40;99.90;;;;;;5011993;28;19925;-71
2022/06/18 09:10:17;;;;;;;;;;;23.40;99.90;;;;;;5011998;28;19921;-72
2022/06/18 09:12:49;;;;;;;;;;;23.50;99.90;;;;;;5011883;28;20378;-71
2022/06/18 09:15:17;;;;;;;;;;;23.50;99.90;;;;;;5014328;28;20016;-71
2022/06/18 09:18:03;;;;;;;;;;;23.60;99.90;;;;;;5011951;28;20360;-71
2022/06/18 09:20:28;;;;;;;;;;;23.70;99.90;;;;;;5012064;28;19922;-72
2022/06/18 09:22:55;;;;;;;;;;;23.70;99.90;;;;;;5011735;28;19972;-71
2022/06/18 09:25:24;;;;;;;;;;;23.80;99.90;;;;;;5024247;28;20405;-72
2022/06/18 09:27:55;;;;;;;;;;;23.80;99.90;;;;;;5021929;28;19965;-72
2022/06/18 09:30:25;;;;;;;;;;;23.80;99.90;;;;;;5013336;28;20000;-72
2022/06/18 09:32:54;;;;;;;;;;;23.80;99.90;;;;;;5030338;28;19917;-72
2022/06/18 09:35:24;;;;;;;;;;;23.90;99.90;;;;;;5014184;28;19917;-71
2022/06/18 09:38:13;;;;;;;;;;;23.80;99.90;;;;;;5011484;28;19921;-71
2022/06/18 09:40:44;;;;;;;;;;;23.80;99.90;;;;;;4995323;28;20278;-72
2022/06/18 09:43:28;;;;;;;;;;;24.00;99.90;;;;;;5014745;28;20374;-72
2022/06/18 09:45:55;;;;;;;;;;;24.00;99.90;;;;;;5011353;28;19924;-71
2022/06/18 09:48:21;;;;;;;;;;;24.00;99.90;;;;;;5011132;28;19940;-72
2022/06/18 09:50:48;;;;;;;;;;;23.90;99.90;;;;;;4996319;28;20275;-72
2022/06/18 09:53:25;;;;;;;;;;;24.00;99.90;;;;;;5010888;28;20009;-72
2022/06/18 09:56:26;;;;;;;;;;;23.90;99.90;;;;;;5028457;28;19921;-72
2022/06/18 09:59:00;;;;;;;;;;;24.00;99.90;;;;;;5028264;28;19925;-71
2022/06/18 10:01:40;;;;;;;;;;;24.20;99.90;;;;;;4995993;28;19968;-72
2022/06/18 10:06:57;;;;;;;;;;;24.20;99.90;;;;;;5027409;28;19922;-71
2022/06/18 10:09:43;;;;;;;;;;;24.20;99.90;;;;;;5018843;28;19964;-71
2022/06/18 10:12:11;;;;;;;;;;;24.20;99.90;;;;;;5019836;28;19917;-72
2022/06/18 10:14:37;;;;;;;;;;;24.20;99.90;;;;;;5030758;28;20334;-72
2022/06/18 10:17:11;;;;;;;;;;;24.20;99.90;;;;;;5028766;28;19928;-71
2022/06/18 10:19:37;;;;;;;;;;;24.30;99.90;;;;;;5026525;28;19928;-71
2022/06/18 10:22:14;;;;;;;;;;;24.50;99.90;;;;;;5023389;28;20352;-71
2022/06/18 10:24:47;;;;;;;;;;;24.40;99.90;;;;;;5014349;28;20003;-71
2022/06/18 10:27:13;;;;;;;;;;;24.20;99.90;;;;;;4997906;28;19980;-72
2022/06/18 10:29:44;;;;;;;;;;;24.30;99.90;;;;;;5010477;28;19921;-72
2022/06/18 10:32:29;;;;;;;;;;;24.30;99.90;;;;;;5030423;28;19922;-72
2022/06/18 10:35:16;;;;;;;;;;;24.30;99.90;;;;;;4993881;28;20405;-72
2022/06/18 10:37:41;;;;;;;;;;;24.50;99.90;;;;;;5013140;28;19929;-71
2022/06/18 10:40:22;;;;;;;;;;;24.50;99.90;;;;;;4996090;28;19921;-71
2022/06/18 10:42:54;;;;;;;;;;;24.60;99.90;;;;;;5046642;28;19924;-72
2022/06/18 10:45:29;;;;;;;;;;;24.50;99.90;;;;;;5045542;28;19971;-71
2022/06/18 10:47:54;;;;;;;;;;;24.60;99.90;;;;;;5045374;28;19917;-71
2022/06/18 10:50:21;;;;;;;;;;;24.40;99.90;;;;;;5041081;28;19925;-72
2022/06/18 10:53:01;;;;;;;;;;;24.50;99.90;;;;;;5017260;28;19921;-72
2022/06/18 10:55:26;;;;;;;;;;;24.60;99.90;;;;;;5005325;28;19989;-72
2022/06/18 10:57:52;;;;;;;;;;;24.70;99.90;;;;;;4996542;28;20000;-71
2022/06/18 11:00:19;;;;;;;;;;;24.60;99.90;;;;;;5009829;28;19921;-72
2022/06/18 11:02:46;;;;;;;;;;;24.50;99.90;;;;;;5010246;28;20366;-72
2022/06/18 11:05:15;;;;;;;;;;;24.50;99.90;;;;;;5020911;28;19917;-72
2022/06/18 11:07:45;;;;;;;;;;;24.60;99.90;;;;;;5013610;28;19925;-72
2022/06/18 11:10:22;;;;;;;;;;;24.70;99.90;;;;;;5009939;28;20440;-72
2022/06/18 11:12:52;;;;;;;;;;;24.70;99.90;;;;;;4993212;28;20034;-71
2022/06/18 11:15:29;;;;;;;;;;;24.60;99.90;;;;;;5019445;28;19932;-72
2022/06/18 11:17:55;;;;;;;;;;;24.70;99.90;;;;;;5026217;28;19929;-72
2022/06/18 11:20:25;;;;;;;;;;;24.80;99.90;;;;;;5028012;28;20340;-71
2022/06/18 11:22:55;;;;;;;;;;;24.70;99.90;;;;;;5029307;28;20008;-72
2022/06/18 11:25:21;;;;;;;;;;;24.70;99.90;;;;;;5023689;28;19971;-71
2022/06/18 11:27:47;;;;;;;;;;;24.70;99.90;;;;;;5029324;28;19978;-72
2022/06/18 11:30:40;;;;;;;;;;;24.90;99.90;;;;;;5020201;28;19918;-72
2022/06/18 11:33:06;;;;;;;;;;;24.90;99.90;;;;;;5016137;28;20404;-72
2022/06/18 11:35:35;;;;;;;;;;;24.80;99.90;;;;;;5038131;28;20006;-72
2022/06/18 11:38:15;;;;;;;;;;;24.70;99.90;;;;;;5049174;28;19959;-72
2022/06/18 11:40:41;;;;;;;;;;;24.80;99.90;;;;;;4999513;28;20011;-72
2022/06/18 11:43:25;;;;;;;;;;;24.80;99.90;;;;;;5009907;28;19976;-72
2022/06/18 11:45:57;;;;;;;;;;;24.80;99.90;;;;;;5031092;28;20047;-72
2022/06/18 11:48:41;;;;;;;;;;;24.70;99.90;;;;;;5029100;28;19995;-72
2022/06/18 11:51:22;;;;;;;;;;;24.80;99.90;;;;;;5011172;28;19929;-72
2022/06/18 11:53:52;;;;;;;;;;;24.70;99.90;;;;;;5011022;28;20008;-72
2022/06/18 11:56:23;;;;;;;;;;;24.70;99.90;;;;;;5045497;28;19921;-72
2022/06/18 11:58:52;;;;;;;;;;;24.80;99.90;;;;;;5044909;28;19944;-72
2022/06/18 12:01:37;;;;;;;;;;;24.90;99.90;;;;;;5001713;28;19917;-72
2022/06/18 12:04:21;;;;;;;;;;;24.80;99.90;;;;;;5043372;28;19917;-72
2022/06/18 12:06:52;;;;;;;;;;;24.90;99.90;;;;;;5020513;28;20433;-72
2022/06/18 12:09:19;;;;;;;;;;;24.70;99.90;;;;;;5042659;28;19917;-72
2022/06/18 12:12:02;;;;;;;;;;;24.80;99.90;;;;;;5028604;28;20365;-72
2022/06/18 12:14:31;;;;;;;;;;;24.80;99.90;;;;;;5011375;28;19923;-72
2022/06/18 12:16:59;;;;;;;;;;;24.70;99.90;;;;;;5012100;28;19975;-72
2022/06/18 12:19:32;;;;;;;;;;;24.80;99.90;;;;;;5028741;28;19943;-72
2022/06/18 12:22:00;;;;;;;;;;;24.80;99.90;;;;;;5012616;28;19939;-71
2022/06/18 12:24:37;;;;;;;;;;;25.00;99.90;;;;;;5013363;28;19971;-72
2022/06/18 12:27:06;;;;;;;;;;;24.90;99.90;;;;;;5014644;28;20380;-72
2022/06/18 12:29:36;;;;;;;;;;;24.80;99.90;;;;;;5048928;28;20301;-72
2022/06/18 12:32:02;;;;;;;;;;;24.80;99.90;;;;;;5015910;28;19918;-72
2022/06/18 12:34:27;;;;;;;;;;;24.80;99.90;;;;;;5048799;28;19924;-72
2022/06/18 12:37:02;;;;;;;;;;;24.80;99.90;;;;;;5049013;28;20059;-72
2022/06/18 12:39:46;;;;;;;;;;;24.70;99.90;;;;;;5048783;28;19928;-72
2022/06/18 12:42:13;;;;;;;;;;;24.60;99.90;;;;;;5049168;28;19979;-71
2022/06/18 12:44:38;;;;;;;;;;;24.70;99.90;;;;;;5031507;28;19922;-72
2022/06/18 12:47:22;;;;;;;;;;;24.70;99.90;;;;;;5016841;28;20381;-71
2022/06/18 12:49:57;;;;;;;;;;;24.80;99.90;;;;;;5015093;28;20277;-71
2022/06/18 12:52:22;;;;;;;;;;;24.90;99.90;;;;;;5032395;28;20392;-71
2022/06/18 12:54:49;;;;;;;;;;;24.70;99.90;;;;;;5044810;28;19964;-71
2022/06/18 12:57:37;;;;;;;;;;;24.60;99.90;;;;;;5042740;28;19928;-71
2022/06/18 13:00:12;;;;;;;;;;;24.50;99.90;;;;;;5028774;28;19925;-71
2022/06/18 13:02:48;;;;;;;;;;;24.50;99.90;;;;;;5012187;28;19927;-71
2022/06/18 13:05:20;;;;;;;;;;;24.50;99.90;;;;;;5012065;28;20397;-71
2022/06/18 13:08:04;;;;;;;;;;;24.40;99.90;;;;;;5028844;28;19925;-71
2022/06/18 13:10:29;;;;;;;;;;;24.30;99.90;;;;;;5015201;28;19924;-71
2022/06/18 13:13:13;;;;;;;;;;;24.10;99.90;;;;;;5048300;28;20390;-71
2022/06/18 13:15:48;;;;;;;;;;;24.20;99.90;;;;;;5030372;28;20398;-71
2022/06/18 13:18:28;;;;;;;;;;;24.00;99.90;;;;;;5043107;28;19968;-72
2022/06/18 13:20:56;;;;;;;;;;;24.00;99.90;;;;;;5004038;28;19917;-70
2022/06/18 13:29:01;;;;;;;;;;;23.80;99.90;;;;;;5004174;28;19919;-71
2022/06/18 13:31:48;;;;;;;;;;;23.80;99.90;;;;;;5034696;28;19928;-70
2022/06/18 13:34:32;;;;;;;;;;;23.80;99.90;;;;;;5022859;28;20369;-71
2022/06/18 13:36:58;;;;;;;;;;;23.60;99.90;;;;;;5031005;28;20365;-71
2022/06/18 13:39:26;;;;;;;;;;;23.70;99.90;;;;;;5017171;28;20011;-71
2022/06/18 13:42:01;;;;;;;;;;;23.60;99.90;;;;;;5017891;28;19921;-70
2022/06/18 13:44:33;;;;;;;;;;;23.70;99.90;;;;;;5027129;28;19921;-70
2022/06/18 13:47:02;;;;;;;;;;;23.60;99.90;;;;;;5002174;28;20043;-71
2022/06/18 13:49:30;;;;;;;;;;;23.60;99.90;;;;;;5025524;28;19963;-70
2022/06/18 13:52:01;;;;;;;;;;;23.50;99.90;;;;;;5006853;28;20345;-71
2022/06/18 13:54:38;;;;;;;;;;;23.40;99.90;;;;;;5028922;28;19929;-71
2022/06/18 13:57:04;;;;;;;;;;;23.40;99.90;;;;;;5014058;28;20008;-71
2022/06/18 13:59:31;;;;;;;;;;;23.40;99.90;;;;;;5047040;28;19917;-71
2022/06/18 14:02:20;;;;;;;;;;;23.20;99.90;;;;;;5011944;28;19921;-70
2022/06/18 14:04:46;;;;;;;;;;;23.10;99.90;;;;;;5026459;28;19917;-70
2022/06/18 14:07:15;;;;;;;;;;;23.00;99.90;;;;;;5014857;28;19941;-71
2022/06/18 14:09:49;;;;;;;;;;;23.00;99.90;;;;;;5006219;28;19921;-70
2022/06/18 14:12:21;;;;;;;;;;;22.90;99.90;;;;;;5026415;28;19917;-71
2022/06/18 14:14:47;;;;;;;;;;;22.80;99.90;;;;;;5028662;28;19922;-70
2022/06/18 14:17:14;;;;;;;;;;;22.70;99.90;;;;;;4997796;28;19922;-71
2022/06/18 14:19:42;;;;;;;;;;;22.70;99.90;;;;;;5036617;28;19917;-71
2022/06/18 14:22:08;;;;;;;;;;;22.70;99.90;;;;;;5020649;28;20024;-71
2022/06/18 14:24:38;;;;;;;;;;;22.70;99.90;;;;;;5022916;28;19963;-71
2022/06/18 14:27:03;;;;;;;;;;;22.70;99.90;;;;;;5031995;28;19968;-71
2022/06/18 14:29:37;;;;;;;;;;;22.50;99.90;;;;;;5003603;28;19917;-71
2022/06/18 14:32:12;;;;;;;;;;;22.50;99.90;;;;;;5027880;28;19917;-71
2022/06/18 14:34:37;;;;;;;;;;;22.40;99.90;;;;;;5026119;28;19922;-71
2022/06/18 14:37:05;;;;;;;;;;;22.50;99.90;;;;;;5027606;28;20392;-71
2022/06/18 14:39:33;;;;;;;;;;;22.30;99.90;;;;;;5012270;28;19927;-69
2022/06/18 14:42:07;;;;;;;;;;;22.40;99.90;;;;;;5012144;28;19917;-76
2022/06/18 14:44:34;;;;;;;;;;;22.30;99.90;;;;;;5000484;28;20441;-75
2022/06/18 14:47:03;;;;;;;;;;;22.30;99.90;;;;;;5008672;28;20009;-76